Time;durP1;ratioP1;P1;durP2;ratioP2;P2;SDS_P1;SDS_P2;PMS_P1;PMS_P2;Temp;Humidity;BMP_temperature;BMP_pressure;BME280_temperature;BME280_humidity;BME280_pressure;Samples;Min_cycle;Max_cycle;Signal;HPM_P1;HPM_P2
2023/05/13 00:02:23;;;;;;;4.50;4.20;;;12.70;99.90;;;;;;4976570;28;20176;-66
2023/05/13 00:04:49;;;;;;;4.97;4.57;;;12.80;99.90;;;;;;4984149;28;20176;-66
2023/05/13 00:07:14;;;;;;;5.17;4.00;;;12.80;99.90;;;;;;4983672;28;20249;-66
2023/05/13 00:09:40;;;;;;;4.13;3.83;;;12.80;99.90;;;;;;4974764;28;20206;-66
2023/05/13 00:12:05;;;;;;;6.13;3.97;;;12.80;99.90;;;;;;4973694;28;20921;-66
2023/05/13 00:14:31;;;;;;;5.07;4.63;;;12.80;99.90;;;;;;4983570;28;20209;-66
2023/05/13 00:16:58;;;;;;;4.00;3.70;;;12.70;99.90;;;;;;4979735;28;20649;-66
2023/05/13 00:19:23;;;;;;;5.13;4.73;;;12.70;99.90;;;;;;4987513;28;20215;-65
2023/05/13 00:21:49;;;;;;;5.73;5.23;;;12.60;99.90;;;;;;4972752;28;20998;-66
2023/05/13 00:24:15;;;;;;;4.37;4.07;;;12.60;99.90;;;;;;4972056;28;20298;-65
2023/05/13 00:26:40;;;;;;;5.53;5.03;;;12.60;99.90;;;;;;4982595;28;20692;-66
2023/05/13 00:29:06;;;;;;;6.17;4.70;;;12.60;99.90;;;;;;4990349;28;20246;-65
2023/05/13 00:31:31;;;;;;;4.57;4.27;;;12.60;99.90;;;;;;4976211;28;20650;-65
2023/05/13 00:33:57;;;;;;;5.47;4.67;;;12.60;99.90;;;;;;4972905;28;20611;-65
2023/05/13 00:36:23;;;;;;;5.93;5.40;;;12.50;99.90;;;;;;4984649;28;20199;-65
2023/05/13 00:38:48;;;;;;;5.00;4.60;;;12.50;99.90;;;;;;4975204;28;20196;-65
2023/05/13 00:41:14;;;;;;;5.23;4.83;;;12.50;99.90;;;;;;4972265;28;20616;-66
2023/05/13 00:43:39;;;;;;;5.03;4.57;;;12.50;99.90;;;;;;4978731;28;20171;-65
2023/05/13 00:46:05;;;;;;;4.77;4.47;;;12.50;99.90;;;;;;4982887;28;20191;-66
2023/05/13 00:48:32;;;;;;;5.20;4.50;;;12.50;99.90;;;;;;4980641;28;20204;-65
2023/05/13 00:50:58;;;;;;;6.03;5.43;;;12.50;99.90;;;;;;4973305;28;20199;-65
2023/05/13 00:53:24;;;;;;;5.00;4.60;;;12.40;99.90;;;;;;4984586;28;20459;-65
2023/05/13 00:55:49;;;;;;;5.23;4.83;;;12.40;99.90;;;;;;4980430;28;20446;-65
2023/05/13 00:58:16;;;;;;;4.73;4.43;;;12.50;99.90;;;;;;4980023;28;20448;-65
2023/05/13 01:01:22;;;;;;;5.13;4.63;;;12.50;99.90;;;;;;4973055;28;20393;-65
2023/05/13 01:04:02;;;;;;;5.70;5.20;;;12.50;99.90;;;;;;4967337;28;20450;-68
2023/05/13 01:06:55;;;;;;;5.05;4.60;;;12.50;99.90;;;;;;4972665;28;20931;-66
2023/05/13 01:09:46;;;;;;;4.70;4.30;;;12.50;99.90;;;;;;4972137;28;20678;-66
2023/05/13 01:12:20;;;;;;;5.93;5.00;;;12.50;99.90;;;;;;4970651;28;20538;-66
2023/05/13 01:14:56;;;;;;;5.83;5.27;;;12.60;99.90;;;;;;4972846;28;20952;-66
2023/05/13 01:17:49;;;;;;;4.80;4.50;;;12.60;99.90;;;;;;4971847;28;20454;-66
2023/05/13 01:20:19;;;;;;;5.13;4.70;;;12.60;99.90;;;;;;4971638;28;20884;-66
2023/05/13 01:22:45;;;;;;;5.40;5.03;;;12.60;99.90;;;;;;4969836;28;20457;-66
2023/05/13 01:25:10;;;;;;;5.30;4.90;;;12.50;99.90;;;;;;4973911;28;20526;-66
2023/05/13 01:27:36;;;;;;;4.40;4.10;;;12.40;99.90;;;;;;4985989;28;20191;-66
2023/05/13 01:30:03;;;;;;;5.30;4.80;;;12.40;99.90;;;;;;4981165;28;20195;-66
2023/05/13 01:32:29;;;;;;;5.07;4.67;;;12.30;99.90;;;;;;4984434;28;20474;-66
2023/05/13 01:34:55;;;;;;;5.93;5.53;;;12.30;99.90;;;;;;4977385;28;20494;-66
2023/05/13 01:37:21;;;;;;;5.53;5.13;;;12.30;99.90;;;;;;4974425;28;20187;-66
2023/05/13 01:39:47;;;;;;;5.17;4.77;;;12.30;99.90;;;;;;4978811;28;20532;-66
2023/05/13 01:42:13;;;;;;;6.43;4.97;;;12.20;99.90;;;;;;4984627;28;20191;-66
2023/05/13 01:44:39;;;;;;;5.10;4.77;;;12.20;99.90;;;;;;4979670;28;20443;-66
2023/05/13 01:47:05;;;;;;;5.10;4.70;;;12.10;99.90;;;;;;4971635;28;20192;-67
2023/05/13 01:49:30;;;;;;;5.30;4.90;;;12.00;99.90;;;;;;4972183;28;20265;-67
2023/05/13 01:51:56;;;;;;;5.83;4.30;;;12.00;99.90;;;;;;4971351;28;20184;-66
2023/05/13 01:54:22;;;;;;;5.63;5.17;;;11.90;99.90;;;;;;4979053;28;20585;-66
2023/05/13 01:56:47;;;;;;;5.03;4.60;;;11.80;99.90;;;;;;4972366;28;20441;-66
2023/05/13 01:59:13;;;;;;;9.77;4.50;;;11.70;99.90;;;;;;4970357;28;20215;-66
2023/05/13 02:01:39;;;;;;;5.27;4.77;;;11.70;99.90;;;;;;4974214;28;20210;-66
2023/05/13 02:04:05;;;;;;;5.27;4.90;;;11.70;99.90;;;;;;4980701;28;20188;-66
2023/05/13 02:06:31;;;;;;;4.60;4.30;;;11.70;99.90;;;;;;4977297;28;20489;-66
2023/05/13 02:08:56;;;;;;;5.63;4.63;;;11.70;99.90;;;;;;4978564;28;20673;-66
2023/05/13 02:11:22;;;;;;;4.77;4.37;;;11.70;99.90;;;;;;4980202;28;20504;-66
2023/05/13 02:13:47;;;;;;;4.83;4.53;;;11.60;99.90;;;;;;4971262;28;20206;-66
2023/05/13 02:16:17;;;;;;;5.27;4.87;;;11.50;99.90;;;;;;4972428;28;20210;-66
2023/05/13 02:18:42;;;;;;;5.47;4.97;;;11.50;99.90;;;;;;4974564;28;20295;-66
2023/05/13 02:21:08;;;;;;;5.50;5.10;;;11.50;99.90;;;;;;4979826;28;20601;-67
2023/05/13 02:23:33;;;;;;;4.83;4.33;;;11.50;99.90;;;;;;4976828;28;20195;-66
2023/05/13 02:25:59;;;;;;;5.77;5.33;;;11.60;99.90;;;;;;4980716;28;20634;-66
2023/05/13 02:28:25;;;;;;;5.83;4.77;;;11.50;99.90;;;;;;4981851;28;20212;-66
2023/05/13 02:30:51;;;;;;;7.10;5.30;;;11.50;99.90;;;;;;4971265;28;20180;-66
2023/05/13 02:33:16;;;;;;;5.30;4.90;;;11.40;99.90;;;;;;4980050;28;20183;-66
2023/05/13 02:35:42;;;;;;;4.80;4.50;;;11.40;99.90;;;;;;4979224;28;20188;-66
2023/05/13 02:38:10;;;;;;;5.10;4.63;;;11.40;99.90;;;;;;4977455;28;20218;-66
2023/05/13 02:40:36;;;;;;;4.57;4.20;;;11.30;99.90;;;;;;4970917;28;20180;-66
2023/05/13 02:43:02;;;;;;;4.87;4.47;;;11.20;99.90;;;;;;4978982;28;20521;-66
2023/05/13 02:45:27;;;;;;;6.90;6.30;;;11.20;99.90;;;;;;4980331;28;20223;-66
2023/05/13 02:47:53;;;;;;;5.73;5.23;;;11.20;99.90;;;;;;4979623;28;20689;-66
2023/05/13 02:50:18;;;;;;;7.67;5.47;;;11.20;99.90;;;;;;4979021;28;20263;-66
2023/05/13 02:52:44;;;;;;;6.93;4.30;;;11.20;99.90;;;;;;4970279;28;20712;-66
2023/05/13 02:55:10;;;;;;;6.77;4.20;;;11.20;99.90;;;;;;4972066;28;20204;-66
2023/05/13 02:57:36;;;;;;;4.80;4.40;;;11.30;99.90;;;;;;4970825;28;20315;-66
2023/05/13 03:00:03;;;;;;;4.60;4.30;;;11.30;99.90;;;;;;4978344;28;20219;-66
2023/05/13 03:02:29;;;;;;;4.83;4.43;;;11.30;99.90;;;;;;4983416;28;20521;-67
2023/05/13 03:04:55;;;;;;;6.00;5.50;;;11.40;99.90;;;;;;4969931;28;20522;-66
2023/05/13 03:07:21;;;;;;;4.77;4.37;;;11.40;99.90;;;;;;4970498;28;20812;-67
2023/05/13 03:09:46;;;;;;;4.80;4.40;;;11.50;99.90;;;;;;4967815;28;20213;-66
2023/05/13 03:12:12;;;;;;;5.10;4.60;;;11.40;99.90;;;;;;4971565;28;20192;-66
2023/05/13 03:14:38;;;;;;;5.13;4.50;;;11.40;99.90;;;;;;4979056;28;20203;-66
2023/05/13 03:17:04;;;;;;;4.10;3.70;;;11.50;99.90;;;;;;4983122;28;20180;-67
2023/05/13 03:19:30;;;;;;;5.30;4.40;;;11.50;99.90;;;;;;4974714;28;20479;-67
2023/05/13 03:21:56;;;;;;;5.63;5.20;;;11.50;99.90;;;;;;4972523;28;20441;-66
2023/05/13 03:24:21;;;;;;;5.17;4.77;;;11.50;99.90;;;;;;4973959;28;20654;-66
2023/05/13 03:26:47;;;;;;;5.07;4.60;;;11.60;99.90;;;;;;4975030;28;20187;-67
2023/05/13 03:29:12;;;;;;;5.70;4.57;;;11.50;99.90;;;;;;4974167;28;20200;-66
2023/05/13 03:31:38;;;;;;;6.07;4.33;;;11.60;99.90;;;;;;4973498;28;20654;-66
2023/05/13 03:34:03;;;;;;;4.30;3.80;;;11.60;99.90;;;;;;4973886;28;20231;-67
2023/05/13 03:36:29;;;;;;;4.93;4.23;;;11.60;99.90;;;;;;4973778;28;20243;-66
2023/05/13 03:38:54;;;;;;;4.50;4.10;;;11.50;99.90;;;;;;4972946;28;20243;-66
2023/05/13 03:41:20;;;;;;;4.93;4.63;;;11.50;99.90;;;;;;4973401;28;20203;-66
2023/05/13 03:43:45;;;;;;;4.80;4.50;;;11.50;99.90;;;;;;4972636;28;20184;-67
2023/05/13 03:46:11;;;;;;;6.47;4.00;;;11.60;99.90;;;;;;4974462;28;20190;-66
2023/05/13 03:48:37;;;;;;;4.30;4.00;;;11.50;99.90;;;;;;4974423;28;20674;-66
2023/05/13 03:51:02;;;;;;;4.70;4.37;;;11.60;99.90;;;;;;4975525;28;20172;-66
2023/05/13 03:53:28;;;;;;;4.13;3.77;;;11.60;99.90;;;;;;4977982;28;20203;-66
2023/05/13 03:55:53;;;;;;;4.97;4.53;;;11.60;99.90;;;;;;4972542;28;20227;-66
2023/05/13 03:58:21;;;;;;;4.90;4.40;;;11.60;99.90;;;;;;4972553;28;20200;-66
2023/05/13 04:00:47;;;;;;;4.90;4.43;;;11.60;99.90;;;;;;4980108;28;20191;-66
2023/05/13 04:03:17;;;;;;;4.10;3.80;;;11.70;99.90;;;;;;4984946;28;20812;-66
2023/05/13 04:05:44;;;;;;;4.47;4.10;;;11.70;99.90;;;;;;4980355;28;20435;-66
2023/05/13 04:08:10;;;;;;;3.87;3.57;;;11.60;99.90;;;;;;4975507;28;20458;-66
2023/05/13 04:10:35;;;;;;;4.70;4.30;;;11.50;99.90;;;;;;4978662;28;20521;-66
2023/05/13 04:13:01;;;;;;;5.83;3.70;;;11.50;99.90;;;;;;4986128;28;20659;-66
2023/05/13 04:15:26;;;;;;;5.90;4.50;;;11.40;99.90;;;;;;4984368;28;20192;-66
2023/05/13 04:17:52;;;;;;;4.57;4.27;;;11.50;99.90;;;;;;4982209;28;20210;-66
2023/05/13 04:20:18;;;;;;;4.50;4.20;;;11.50;99.90;;;;;;4974091;28;20543;-66
2023/05/13 04:22:44;;;;;;;5.53;4.33;;;11.50;99.90;;;;;;4979544;28;21042;-66
2023/05/13 04:25:09;;;;;;;5.30;4.80;;;11.40;99.90;;;;;;4981152;28;20894;-66
2023/05/13 04:27:35;;;;;;;4.93;4.53;;;11.40;99.90;;;;;;4982628;28;20255;-66
2023/05/13 04:30:01;;;;;;;5.13;4.80;;;11.40;99.90;;;;;;4972073;28;20188;-66
2023/05/13 04:32:26;;;;;;;5.07;4.67;;;11.30;99.90;;;;;;4972211;28;20212;-66
2023/05/13 04:34:53;;;;;;;5.43;4.50;;;11.30;99.90;;;;;;4973349;28;20241;-66
2023/05/13 04:37:19;;;;;;;5.20;3.77;;;11.30;99.90;;;;;;4972113;28;20187;-66
2023/05/13 04:39:45;;;;;;;4.10;3.70;;;11.40;99.90;;;;;;4971562;28;20455;-66
2023/05/13 04:42:11;;;;;;;4.93;4.53;;;11.40;99.90;;;;;;4977997;28;20220;-66
2023/05/13 04:44:37;;;;;;;7.20;5.07;;;11.40;99.90;;;;;;4983548;28;20449;-66
2023/05/13 04:47:02;;;;;;;4.50;4.20;;;11.40;99.90;;;;;;4987765;28;20440;-66
2023/05/13 04:49:28;;;;;;;4.60;4.20;;;11.50;99.90;;;;;;4971242;28;20207;-66
2023/05/13 04:51:53;;;;;;;4.23;3.90;;;11.50;99.90;;;;;;4972156;28;20230;-66
2023/05/13 04:54:19;;;;;;;5.07;4.50;;;11.50;99.90;;;;;;4973026;28;20289;-66
2023/05/13 04:56:45;;;;;;;4.93;3.60;;;11.50;99.90;;;;;;4971253;28;20223;-66
2023/05/13 04:59:10;;;;;;;4.73;4.33;;;11.50;99.90;;;;;;4972101;28;20273;-66
2023/05/13 05:01:36;;;;;;;4.10;3.80;;;11.50;99.90;;;;;;4971005;28;20180;-66
2023/05/13 05:04:01;;;;;;;4.63;4.07;;;11.60;99.90;;;;;;4970429;28;20184;-66
2023/05/13 05:06:27;;;;;;;5.63;4.63;;;11.70;99.90;;;;;;4971963;28;20192;-66
2023/05/13 05:08:52;;;;;;;5.57;4.63;;;11.70;99.90;;;;;;4971636;28;20657;-66
2023/05/13 05:11:18;;;;;;;3.77;3.57;;;11.60;99.90;;;;;;4972381;28;20237;-66
2023/05/13 05:13:43;;;;;;;5.00;4.50;;;11.70;99.90;;;;;;4968651;28;20230;-66
2023/05/13 05:16:09;;;;;;;4.63;4.23;;;11.70;99.90;;;;;;4973279;28;20191;-66
2023/05/13 05:18:35;;;;;;;4.37;4.07;;;11.80;99.90;;;;;;4989797;23;20235;-70
2023/05/13 05:21:01;;;;;;;4.63;4.23;;;11.80;99.90;;;;;;4992037;28;20247;-69
2023/05/13 05:23:26;;;;;;;5.40;4.00;;;11.80;99.90;;;;;;4984161;28;20183;-70
2023/05/13 05:25:52;;;;;;;4.93;4.53;;;11.80;99.90;;;;;;4990506;28;20835;-70
2023/05/13 05:28:18;;;;;;;4.90;4.50;;;11.70;99.90;;;;;;4987966;28;20204;-70
2023/05/13 05:30:43;;;;;;;4.33;3.70;;;11.80;99.90;;;;;;4971138;28;20765;-71
2023/05/13 05:33:09;;;;;;;5.10;4.67;;;11.80;99.90;;;;;;4972028;28;20211;-69
2023/05/13 05:35:37;;;;;;;4.50;4.20;;;11.90;99.90;;;;;;4964189;28;20267;-69
2023/05/13 05:38:03;;;;;;;5.07;4.67;;;11.90;99.90;;;;;;4970548;28;20440;-70
2023/05/13 05:40:33;;;;;;;4.40;4.00;;;11.90;99.90;;;;;;4970209;28;20792;-69
2023/05/13 05:42:59;;;;;;;5.60;4.70;;;11.90;99.90;;;;;;4968518;28;20447;-70
2023/05/13 05:45:24;;;;;;;4.93;4.53;;;12.00;99.90;;;;;;4969556;28;20432;-71
2023/05/13 05:47:50;;;;;;;4.50;4.10;;;12.10;99.90;;;;;;4976501;28;20242;-69
2023/05/13 05:50:15;;;;;;;5.17;4.80;;;12.10;99.90;;;;;;4968373;28;20616;-69
2023/05/13 05:52:41;;;;;;;4.50;4.10;;;12.20;99.90;;;;;;4970439;28;20183;-69
2023/05/13 05:55:07;;;;;;;5.90;4.73;;;12.20;99.90;;;;;;4976572;28;20215;-70
2023/05/13 05:57:32;;;;;;;4.20;3.90;;;12.20;99.90;;;;;;4972215;28;20690;-71
2023/05/13 05:59:58;;;;;;;4.63;4.23;;;12.10;99.90;;;;;;4970528;28;20455;-69
2023/05/13 06:02:23;;;;;;;6.00;5.37;;;12.10;99.90;;;;;;4972918;28;20183;-70
2023/05/13 06:04:49;;;;;;;5.00;4.50;;;12.10;99.90;;;;;;4971989;28;20192;-69
2023/05/13 06:07:14;;;;;;;4.73;4.43;;;12.10;99.90;;;;;;4976259;28;20198;-70
2023/05/13 06:09:40;;;;;;;5.37;4.93;;;12.20;99.90;;;;;;4978158;28;20196;-70
2023/05/13 06:12:05;;;;;;;5.60;5.10;;;12.20;99.90;;;;;;4971169;28;20240;-70
2023/05/13 06:14:31;;;;;;;5.67;4.07;;;12.20;99.90;;;;;;4980780;28;20251;-71
2023/05/13 06:16:56;;;;;;;50.40;12.63;;;12.40;99.90;;;;;;4978966;28;20188;-71
2023/05/13 06:19:22;;;;;;;10.43;6.43;;;12.30;99.90;;;;;;4976814;28;20219;-70
2023/05/13 06:21:48;;;;;;;94.33;16.70;;;12.30;99.90;;;;;;4971050;28;20208;-71
2023/05/13 06:24:13;;;;;;;10.83;6.73;;;12.40;99.90;;;;;;4971697;28;20187;-69
2023/05/13 06:26:39;;;;;;;4.33;4.03;;;12.40;99.90;;;;;;4970756;28;20184;-70
2023/05/13 06:29:04;;;;;;;7.13;5.20;;;12.30;99.90;;;;;;4977138;28;20199;-69
2023/05/13 06:31:30;;;;;;;5.40;4.90;;;12.30;99.90;;;;;;4983240;28;20175;-69
2023/05/13 06:33:55;;;;;;;5.00;4.60;;;12.40;99.90;;;;;;4975066;28;20669;-70
2023/05/13 06:36:21;;;;;;;5.90;5.40;;;12.50;99.90;;;;;;4954790;28;20184;-69
2023/05/13 06:38:46;;;;;;;5.60;5.10;;;12.50;99.90;;;;;;4979977;28;20282;-69
2023/05/13 06:41:12;;;;;;;7.93;4.83;;;12.40;99.90;;;;;;4977389;28;20184;-70
2023/05/13 06:43:37;;;;;;;5.57;5.07;;;12.50;99.90;;;;;;4972144;28;20188;-69
2023/05/13 06:46:03;;;;;;;6.33;5.83;;;12.50;99.90;;;;;;4972257;28;20199;-69
2023/05/13 06:48:29;;;;;;;6.20;5.60;;;12.60;99.90;;;;;;4969285;28;20474;-69
2023/05/13 06:50:54;;;;;;;7.63;5.73;;;12.80;99.90;;;;;;4972197;28;20563;-71
2023/05/13 06:53:20;;;;;;;6.67;6.07;;;12.80;99.90;;;;;;4973318;28;20254;-69
2023/05/13 06:55:46;;;;;;;5.20;4.80;;;13.00;99.90;;;;;;4982769;28;20259;-70
2023/05/13 06:58:11;;;;;;;5.50;5.10;;;13.10;99.90;;;;;;4982667;28;20928;-70
2023/05/13 07:00:38;;;;;;;7.70;5.20;;;13.00;99.90;;;;;;4973873;28;20195;-70
2023/05/13 07:03:05;;;;;;;5.33;4.80;;;13.20;99.90;;;;;;4973507;28;20529;-70
2023/05/13 07:05:32;;;;;;;5.60;5.20;;;13.30;99.90;;;;;;4983196;28;20442;-71
2023/05/13 07:07:57;;;;;;;7.40;6.80;;;13.50;99.90;;;;;;4975574;28;20438;-70
2023/05/13 07:10:23;;;;;;;5.63;5.23;;;13.50;99.90;;;;;;4982127;28;20953;-71
2023/05/13 07:12:48;;;;;;;6.47;5.83;;;13.50;99.90;;;;;;4978594;28;20740;-71
2023/05/13 07:15:15;;;;;;;6.57;5.50;;;13.60;99.90;;;;;;4980155;28;20744;-69
2023/05/13 07:17:41;;;;;;;5.43;4.93;;;13.80;99.90;;;;;;4988085;28;20171;-71
2023/05/13 07:20:07;;;;;;;5.90;5.50;;;13.80;99.90;;;;;;4984004;28;20485;-69
2023/05/13 07:22:33;;;;;;;5.70;5.10;;;14.00;99.90;;;;;;4984738;28;20266;-69
2023/05/13 07:24:59;;;;;;;7.50;5.00;;;14.20;99.90;;;;;;4974750;28;20995;-72
2023/05/13 07:27:25;;;;;;;5.63;5.23;;;14.30;99.90;;;;;;4982555;28;20434;-71
2023/05/13 07:29:50;;;;;;;5.47;4.93;;;14.20;99.90;;;;;;4981608;28;20285;-76
2023/05/13 07:32:16;;;;;;;5.43;5.03;;;14.20;99.90;;;;;;4983382;28;20184;-73
2023/05/13 07:34:41;;;;;;;5.30;4.90;;;14.40;99.90;;;;;;4986321;28;20584;-77
2023/05/13 07:37:07;;;;;;;6.13;5.00;;;14.50;99.90;;;;;;4976525;28;20180;-78
2023/05/13 07:39:32;;;;;;;6.30;5.80;;;14.70;99.90;;;;;;4980380;28;20259;-76
2023/05/13 07:41:58;;;;;;;5.90;5.30;;;14.70;99.90;;;;;;4984938;28;20510;-76
2023/05/13 07:44:23;;;;;;;5.60;5.17;;;15.00;99.90;;;;;;4980165;28;20180;-76
2023/05/13 07:46:52;;;;;;;5.43;4.70;;;15.20;99.90;;;;;;4959906;28;20177;-76
2023/05/13 07:49:17;;;;;;;6.10;5.70;;;15.40;99.90;;;;;;4972782;28;20228;-76
2023/05/13 07:51:43;;;;;;;6.53;6.03;;;15.60;99.90;;;;;;4969760;28;20491;-76
2023/05/13 07:54:09;;;;;;;5.23;4.83;;;15.80;99.90;;;;;;4980185;28;20645;-76
2023/05/13 07:56:34;;;;;;;7.37;4.83;;;15.80;99.90;;;;;;4979181;28;20183;-76
2023/05/13 07:59:00;;;;;;;5.40;5.00;;;15.80;99.90;;;;;;4979021;28;20196;-77
2023/05/13 08:01:26;;;;;;;5.97;5.40;;;15.80;99.90;;;;;;4960362;28;20331;-77
2023/05/13 08:03:51;;;;;;;6.27;5.77;;;15.80;99.90;;;;;;4977932;28;20253;-77
2023/05/13 08:06:17;;;;;;;5.50;5.10;;;15.70;99.90;;;;;;4972904;28;20203;-77
2023/05/13 08:08:42;;;;;;;6.03;5.57;;;15.60;99.90;;;;;;4984331;28;20200;-77
2023/05/13 08:11:08;;;;;;;5.40;5.00;;;15.50;99.90;;;;;;4979536;28;20216;-77
2023/05/13 08:13:33;;;;;;;6.40;5.90;;;15.40;99.90;;;;;;4973844;28;20216;-77
2023/05/13 08:16:03;;;;;;;5.90;5.50;;;15.40;99.90;;;;;;4973371;28;20185;-78
2023/05/13 08:18:29;;;;;;;5.67;5.27;;;15.40;99.90;;;;;;4982262;28;20711;-77
2023/05/13 08:20:54;;;;;;;6.03;5.50;;;15.50;99.90;;;;;;4977143;28;20439;-78
2023/05/13 08:23:20;;;;;;;6.30;5.80;;;15.50;99.90;;;;;;4972414;28;20436;-77
2023/05/13 08:25:45;;;;;;;6.67;6.07;;;15.60;99.90;;;;;;4966092;28;20184;-77
2023/05/13 08:28:11;;;;;;;5.77;5.17;;;15.60;99.90;;;;;;4970674;28;20232;-77
2023/05/13 08:30:39;;;;;;;7.27;5.50;;;15.60;99.90;;;;;;4954188;28;20165;-77
2023/05/13 08:33:05;;;;;;;5.90;5.50;;;15.70;99.90;;;;;;4972953;28;20180;-77
2023/05/13 08:35:31;;;;;;;5.70;4.90;;;15.60;99.90;;;;;;4977105;28;20459;-78
2023/05/13 08:37:56;;;;;;;6.00;5.50;;;15.30;99.90;;;;;;4973263;28;20176;-75
2023/05/13 08:40:22;;;;;;;5.87;5.27;;;15.20;99.90;;;;;;4972475;28;20538;-76
2023/05/13 08:42:51;;;;;;;5.27;4.87;;;15.10;99.90;;;;;;4973321;28;20263;-75
2023/05/13 08:45:19;;;;;;;6.13;5.37;;;15.10;99.90;;;;;;4958117;28;20203;-75
2023/05/13 08:47:44;;;;;;;5.90;5.40;;;15.00;99.90;;;;;;4980926;28;20439;-75
2023/05/13 08:50:12;;;;;;;6.20;5.70;;;14.80;99.90;;;;;;4981081;28;20550;-76
2023/05/13 08:52:37;;;;;;;8.73;8.03;;;14.80;99.90;;;;;;4984453;28;20259;-74
2023/05/13 08:55:04;;;;;;;7.27;6.67;;;14.70;99.90;;;;;;4974443;28;20566;-77
2023/05/13 08:57:30;;;;;;;6.17;5.40;;;14.70;99.90;;;;;;4972397;28;20607;-78
2023/05/13 08:59:55;;;;;;;8.50;6.10;;;14.70;99.90;;;;;;4972450;28;20495;-78
2023/05/13 09:02:22;;;;;;;5.90;5.40;;;14.70;99.90;;;;;;4973670;28;20271;-78
2023/05/13 09:04:52;;;;;;;6.03;5.53;;;14.70;99.90;;;;;;4975378;28;20649;-78
2023/05/13 09:07:17;;;;;;;6.63;5.90;;;14.70;99.90;;;;;;4957394;28;20444;-78
2023/05/13 09:09:44;;;;;;;5.23;4.83;;;14.60;99.90;;;;;;4973258;28;20459;-78
2023/05/13 09:12:10;;;;;;;5.53;5.10;;;14.60;99.90;;;;;;4980921;28;20180;-78
2023/05/13 09:14:37;;;;;;;7.33;6.70;;;14.70;99.90;;;;;;4973526;28;20466;-78
2023/05/13 09:17:03;;;;;;;9.50;5.90;;;14.60;99.90;;;;;;4980970;28;20444;-78
2023/05/13 09:19:29;;;;;;;6.10;5.10;;;14.50;99.90;;;;;;4975935;28;20589;-77
2023/05/13 09:21:55;;;;;;;10.53;8.07;;;14.60;99.90;;;;;;4971403;28;20873;-78
2023/05/13 09:24:21;;;;;;;5.77;5.17;;;14.70;99.90;;;;;;4980877;28;20247;-78
2023/05/13 09:26:50;;;;;;;5.53;5.03;;;14.80;99.90;;;;;;4978751;28;20642;-78
2023/05/13 09:29:28;;;;;;;6.60;6.00;;;14.80;99.90;;;;;;4967448;28;20470;-78
2023/05/13 09:31:54;;;;;;;7.83;6.00;;;14.90;99.90;;;;;;4968780;28;20447;-78
2023/05/13 09:34:28;;;;;;;6.10;5.60;;;14.90;99.90;;;;;;4964528;28;20502;-77
2023/05/13 09:36:56;;;;;;;6.40;5.80;;;14.80;99.90;;;;;;4971593;28;20463;-77
2023/05/13 09:39:21;;;;;;;6.17;5.77;;;14.60;99.90;;;;;;4969165;28;20562;-77
2023/05/13 09:41:47;;;;;;;6.37;5.90;;;14.60;99.90;;;;;;4971336;28;20486;-72
2023/05/13 09:44:12;;;;;;;6.63;6.13;;;14.70;99.90;;;;;;4980464;28;20549;-78
2023/05/13 09:46:40;;;;;;;6.03;5.50;;;14.80;99.90;;;;;;4968545;28;20187;-77
2023/05/13 09:49:06;;;;;;;6.20;5.70;;;14.80;99.90;;;;;;4977026;28;20204;-78
2023/05/13 09:51:32;;;;;;;5.50;4.97;;;15.00;99.90;;;;;;4970140;28;21031;-78
2023/05/13 09:54:05;;;;;;;5.10;4.70;;;15.20;99.90;;;;;;4971662;28;20196;-77
2023/05/13 09:56:34;;;;;;;5.97;5.07;;;15.40;99.90;;;;;;4980028;28;20192;-77
2023/05/13 09:59:01;;;;;;;5.13;4.50;;;15.70;99.90;;;;;;4971144;28;20554;-77
2023/05/13 10:01:27;;;;;;;5.03;4.63;;;16.00;99.90;;;;;;4980437;28;20443;-77
2023/05/13 10:03:58;;;;;;;5.67;5.27;;;16.10;99.90;;;;;;4973794;28;20435;-77
2023/05/13 10:06:25;;;;;;;5.10;4.60;;;16.10;99.90;;;;;;4974713;28;20435;-77
2023/05/13 10:08:51;;;;;;;5.37;4.57;;;15.90;99.90;;;;;;4977945;28;20558;-78
2023/05/13 10:11:18;;;;;;;5.77;5.33;;;15.80;99.90;;;;;;4974022;28;20959;-77
2023/05/13 10:13:49;;;;;;;5.00;4.60;;;15.80;99.90;;;;;;4971710;28;20467;-77
2023/05/13 10:16:17;;;;;;;5.60;5.20;;;16.00;99.90;;;;;;4973228;28;20443;-78
2023/05/13 10:18:43;;;;;;;4.87;4.53;;;16.30;99.90;;;;;;4974046;28;20466;-77
2023/05/13 10:21:08;;;;;;;5.27;4.87;;;16.60;99.90;;;;;;4980118;28;20517;-77
2023/05/13 10:23:34;;;;;;;5.33;4.93;;;16.80;99.90;;;;;;4971506;28;20168;-77
2023/05/13 10:26:00;;;;;;;5.40;5.00;;;16.90;99.90;;;;;;4976688;28;20597;-77
2023/05/13 10:28:26;;;;;;;5.70;5.20;;;16.90;99.90;;;;;;4982974;28;20446;-77
2023/05/13 10:30:52;;;;;;;5.20;4.80;;;16.90;99.90;;;;;;4972727;28;20439;-78
2023/05/13 10:33:18;;;;;;;5.50;5.00;;;16.80;99.90;;;;;;4978492;28;20431;-78
2023/05/13 10:36:00;;;;;;;5.10;4.80;;;16.80;99.90;;;;;;4969472;28;20220;-77
2023/05/13 10:38:50;;;;;;;5.13;4.73;;;17.00;99.90;;;;;;4969099;28;20818;-77
2023/05/13 10:41:34;;;;;;;5.37;4.97;;;17.20;99.90;;;;;;4973735;28;20840;-77
2023/05/13 10:44:00;;;;;;;5.00;4.70;;;17.30;99.90;;;;;;4965539;28;20471;-76
2023/05/13 10:46:26;;;;;;;5.20;4.80;;;17.50;99.90;;;;;;4970671;28;20823;-78
2023/05/13 10:48:57;;;;;;;5.63;4.70;;;17.70;99.90;;;;;;4971898;28;20239;-81
2023/05/13 10:51:24;;;;;;;6.43;4.67;;;17.80;99.90;;;;;;4971079;28;20194;-78
2023/05/13 10:53:54;;;;;;;4.53;4.23;;;17.80;99.90;;;;;;4978262;28;20966;-78
2023/05/13 10:56:22;;;;;;;39.73;7.10;;;17.60;99.90;;;;;;4975317;28;20439;-78
2023/05/13 10:59:01;;;;;;;4.10;3.80;;;17.40;99.90;;;;;;4974706;28;20455;-78
2023/05/13 11:01:41;;;;;;;23.80;6.03;;;17.20;99.90;;;;;;4972313;28;20952;-78
2023/05/13 11:04:12;;;;;;;5.73;5.23;;;17.40;99.90;;;;;;4979872;28;20463;-78
2023/05/13 11:06:40;;;;;;;5.90;5.30;;;17.30;99.90;;;;;;4974829;28;20450;-78
2023/05/13 11:09:06;;;;;;;4.33;4.03;;;17.20;99.90;;;;;;4971058;28;20478;-79
2023/05/13 11:11:34;;;;;;;5.80;5.30;;;17.10;99.90;;;;;;4971986;28;20820;-78
2023/05/13 11:14:19;;;;;;;6.73;5.10;;;16.90;99.90;;;;;;4982678;28;20798;-78
2023/05/13 11:16:52;;;;;;;5.63;5.23;;;16.90;99.90;;;;;;4975256;28;20447;-78
2023/05/13 11:19:20;;;;;;;5.13;4.73;;;16.70;99.90;;;;;;4978660;28;20474;-79
2023/05/13 11:21:50;;;;;;;5.60;5.10;;;16.60;99.90;;;;;;4972201;28;20450;-78
2023/05/13 11:24:17;;;;;;;5.60;5.20;;;16.60;99.90;;;;;;4972293;28;20435;-78
2023/05/13 11:26:45;;;;;;;6.27;5.77;;;16.50;99.90;;;;;;4963030;28;20860;-79
2023/05/13 11:29:11;;;;;;;5.93;5.43;;;16.30;99.90;;;;;;4969264;28;20820;-79
2023/05/13 11:31:48;;;;;;;4.93;4.50;;;16.10;99.90;;;;;;4972880;28;20519;-78
2023/05/13 11:34:16;;;;;;;5.97;5.37;;;15.90;99.90;;;;;;4970023;28;20192;-78
2023/05/13 11:36:48;;;;;;;6.53;5.93;;;15.80;99.90;;;;;;4975499;28;20430;-78
2023/05/13 11:39:16;;;;;;;8.40;5.83;;;15.80;99.90;;;;;;4976526;28;20451;-78
2023/05/13 11:41:49;;;;;;;5.60;5.20;;;15.70;99.90;;;;;;4984421;28;20435;-78
2023/05/13 11:44:17;;;;;;;6.77;6.27;;;15.60;99.90;;;;;;4975718;28;20446;-78
2023/05/13 11:46:57;;;;;;;6.00;5.40;;;15.40;99.90;;;;;;4968162;28;20439;-78
2023/05/13 11:49:39;;;;;;;5.93;5.33;;;15.40;99.90;;;;;;4974653;28;20450;-78
2023/05/13 11:52:10;;;;;;;5.30;4.90;;;15.50;99.90;;;;;;4982234;28;20509;-78
2023/05/13 11:54:53;;;;;;;5.50;5.00;;;15.50;99.90;;;;;;4969175;28;20823;-78
2023/05/13 11:57:19;;;;;;;5.13;4.83;;;15.50;99.90;;;;;;4975442;28;20450;-78
2023/05/13 12:00:04;;;;;;;6.30;4.77;;;15.50;99.90;;;;;;4971516;28;20462;-78
2023/05/13 12:02:32;;;;;;;5.60;4.70;;;15.50;99.90;;;;;;4984094;28;20181;-79
2023/05/13 12:05:05;;;;;;;7.97;5.40;;;15.50;99.90;;;;;;4974854;28;20522;-78
2023/05/13 12:07:31;;;;;;;8.30;5.53;;;15.60;99.90;;;;;;4975036;28;20443;-78
2023/05/13 12:09:59;;;;;;;6.63;4.90;;;15.80;99.90;;;;;;4956725;28;20514;-78
2023/05/13 12:12:25;;;;;;;5.03;4.63;;;16.00;99.90;;;;;;4983570;28;20439;-78
2023/05/13 12:14:52;;;;;;;4.80;4.50;;;16.30;99.90;;;;;;4983426;28;20992;-78
2023/05/13 12:17:19;;;;;;;5.30;4.57;;;16.30;99.90;;;;;;4967392;28;20439;-79
2023/05/13 12:20:21;;;;;;;19.23;7.73;;;16.40;99.90;;;;;;4980672;28;20864;-78
2023/05/13 12:22:47;;;;;;;5.17;4.77;;;16.30;99.90;;;;;;4874675;29;20519;-78
2023/05/13 12:25:35;;;;;;;5.60;5.10;;;16.20;99.90;;;;;;4954039;28;21020;-78
2023/05/13 12:28:26;;;;;;;8.23;6.33;;;16.10;99.90;;;;;;4983605;28;20552;-78
2023/05/13 12:31:04;;;;;;;5.63;5.23;;;16.10;99.90;;;;;;4960144;28;20443;-78
2023/05/13 12:33:32;;;;;;;22.63;6.43;;;16.20;99.90;;;;;;4974089;28;20439;-78
2023/05/13 12:36:21;;;;;;;5.03;4.63;;;16.50;99.90;;;;;;4970820;28;20436;-78
2023/05/13 12:38:56;;;;;;;5.30;4.90;;;16.70;99.90;;;;;;4976352;28;20467;-78
2023/05/13 12:41:24;;;;;;;4.70;4.40;;;16.80;99.90;;;;;;4983268;28;20446;-78
2023/05/13 12:43:54;;;;;;;5.33;4.80;;;16.50;99.90;;;;;;4980109;28;20451;-78
2023/05/13 12:46:19;;;;;;;6.10;5.47;;;16.40;99.90;;;;;;4976119;28;20502;-78
2023/05/13 12:48:45;;;;;;;6.03;4.77;;;16.60;99.90;;;;;;4985245;28;21825;-78